Time;durP1;ratioP1;P1;durP2;ratioP2;P2;SDS_P1;SDS_P2;PMS_P1;PMS_P2;Temp;Humidity;BMP_temperature;BMP_pressure;BME280_temperature;BME280_humidity;BME280_pressure;Samples;Min_cycle;Max_cycle;Signal;HPM_P1;HPM_P2
2022/11/10 00:00:18;;;;;;;15.70;8.73;;;;;;;9.18;100.00;96200.06;1024399;28;20027;-68
2022/11/10 00:00:49;;;;;;;15.70;9.07;;;;;;;9.20;100.00;96203.25;1022753;29;20034;-69
2022/11/10 00:01:19;;;;;;;14.70;8.30;;;;;;;9.20;100.00;96211.88;1022620;28;20031;-71
2022/11/10 00:01:49;;;;;;;15.23;8.45;;;;;;;9.19;100.00;96206.91;1022507;28;20118;-70
2022/11/10 00:02:20;;;;;;;16.58;8.77;;;;;;;9.18;100.00;96211.31;1030030;28;20045;-68
2022/11/10 00:02:50;;;;;;;15.88;9.20;;;;;;;9.17;100.00;96199.28;1030533;28;20074;-71
2022/11/10 00:03:21;;;;;;;21.02;10.30;;;;;;;9.18;100.00;96205.28;1026543;28;20031;-68
2022/11/10 00:03:51;;;;;;;16.67;8.75;;;;;;;9.17;100.00;96204.50;1029614;28;20334;-68
2022/11/10 00:04:22;;;;;;;17.30;9.00;;;;;;;9.16;100.00;96205.56;1026539;28;20030;-68
2022/11/10 00:04:52;;;;;;;16.73;9.55;;;;;;;9.18;100.00;96208.69;1030694;28;20112;-67
2022/11/10 00:05:23;;;;;;;16.85;9.77;;;;;;;9.17;100.00;96209.75;1032681;28;20025;-67
2022/11/10 00:05:54;;;;;;;18.27;9.20;;;;;;;9.17;100.00;96209.75;1034628;28;20056;-66
2022/11/10 00:06:24;;;;;;;16.10;8.85;;;;;;;9.16;100.00;96205.56;1034430;28;20038;-70
2022/11/10 00:06:54;;;;;;;17.00;9.10;;;;;;;9.18;100.00;96206.09;1034360;28;20280;-69
2022/11/10 00:07:26;;;;;;;15.73;8.98;;;;;;;9.19;100.00;96206.91;1030674;28;20026;-71
2022/11/10 00:07:56;;;;;;;19.63;9.52;;;;;;;9.18;100.00;96211.31;1026694;28;20117;-69
2022/11/10 00:08:27;;;;;;;14.13;8.57;;;;;;;9.20;100.00;96211.88;1030626;28;20277;-71
2022/11/10 00:08:57;;;;;;;25.23;11.77;;;;;;;9.19;100.00;96212.94;1030447;28;20030;-69
2022/11/10 00:09:28;;;;;;;16.73;9.18;;;;;;;9.18;100.00;96210.53;1030690;28;20026;-71
2022/11/10 00:09:58;;;;;;;17.55;8.93;;;;;;;9.19;100.00;96209.53;1030435;28;20037;-68
2022/11/10 00:10:28;;;;;;;15.68;9.32;;;;;;;9.15;100.00;96209.22;1034337;28;20084;-69
2022/11/10 00:11:05;;;;;;;16.73;10.02;;;;;;;9.19;100.00;96215.53;1026374;28;20022;-69
2022/11/10 00:11:35;;;;;;;19.35;9.15;;;;;;;9.23;100.00;96217.69;1027262;28;20029;-70
2022/11/10 00:12:06;;;;;;;23.05;9.90;;;;;;;9.20;100.00;96214.50;1029175;28;20292;-69
2022/11/10 00:12:36;;;;;;;16.27;9.27;;;;;;;9.20;100.00;96217.13;1030534;28;20162;-69
2022/11/10 00:13:07;;;;;;;15.57;9.45;;;;;;;9.18;100.00;96211.31;1042689;28;20075;-68
2022/11/10 00:16:59;;;;;;;19.35;10.27;;;;;;;9.21;100.00;96215.28;1042723;28;20035;-71
2022/11/10 00:17:09;;;;;;;18.42;9.45;;;;;;;9.18;100.00;96216.56;1029343;28;20341;-70
2022/11/10 00:17:40;;;;;;;17.25;9.02;;;;;;;9.17;100.00;96216.81;1034441;28;20326;-71
2022/11/10 00:18:11;;;;;;;18.10;9.77;;;;;;;9.23;100.00;96225.53;1034503;28;20698;-69
2022/11/10 00:18:41;;;;;;;21.60;10.20;;;;;;;9.21;100.00;96221.31;1034206;28;20029;-70
2022/11/10 00:19:12;;;;;;;18.83;9.93;;;;;;;9.20;100.00;96227.59;1034476;28;20048;-70
2022/11/10 00:19:42;;;;;;;20.35;9.68;;;;;;;9.20;100.00;96224.19;1034259;28;20037;-71
2022/11/10 00:20:12;;;;;;;15.90;8.60;;;;;;;9.19;100.00;96218.16;1034544;28;20120;-69
2022/11/10 00:20:43;;;;;;;20.45;10.00;;;;;;;9.20;100.00;96226.81;1040850;28;20025;-71
2022/11/10 00:21:14;;;;;;;21.10;9.95;;;;;;;9.20;100.00;96224.19;1038703;28;20025;-71
2022/11/10 00:21:44;;;;;;;21.60;10.82;;;;;;;9.21;100.00;96223.94;1034242;28;20028;-69
2022/11/10 00:22:15;;;;;;;23.50;9.93;;;;;;;9.19;100.00;96223.41;1029169;28;20046;-69
2022/11/10 00:22:45;;;;;;;19.08;10.52;;;;;;;9.04;100.00;96197.00;1029730;28;20034;-70
2022/11/10 00:23:15;;;;;;;22.80;10.43;;;;;;;9.18;100.00;96221.00;1034663;28;20026;-68
2022/11/10 00:23:48;;;;;;;20.02;11.23;;;;;;;9.19;100.00;96220.78;1042558;28;20027;-70
2022/11/10 00:24:19;;;;;;;21.92;10.18;;;;;;;9.18;100.00;96221.78;1042485;28;20029;-68
2022/11/10 00:24:49;;;;;;;20.33;10.55;;;;;;;9.23;100.00;96217.69;1034280;28;20268;-71
2022/11/10 00:25:23;;;;;;;20.77;10.57;;;;;;;9.25;100.00;96223.44;1034366;28;20025;-70
2022/11/10 00:25:53;;;;;;;19.05;10.35;;;;;;;9.21;100.00;96221.31;1034516;28;20276;-70
2022/11/10 00:26:24;;;;;;;20.00;10.05;;;;;;;9.20;100.00;96224.97;1035227;28;20264;-71
2022/11/10 00:26:54;;;;;;;21.60;10.18;;;;;;;9.22;100.00;96222.09;1042498;28;20017;-68
2022/11/10 00:27:24;;;;;;;22.85;11.05;;;;;;;9.23;100.00;96222.91;1038392;28;20017;-69
2022/11/10 00:27:57;;;;;;;19.30;10.82;;;;;;;9.23;100.00;96218.47;1038612;28;20125;-70
2022/11/10 00:28:29;;;;;;;21.60;10.95;;;;;;;9.22;100.00;96224.72;1038452;28;20018;-71
2022/11/10 00:28:59;;;;;;;23.33;11.20;;;;;;;9.24;100.00;96225.28;1038374;28;20318;-69
2022/11/10 00:29:30;;;;;;;20.83;10.95;;;;;;;9.23;100.00;96228.94;1034453;28;20272;-71
2022/11/10 00:30:00;;;;;;;24.05;10.95;;;;;;;9.19;100.00;96223.41;1034428;28;20507;-70
2022/11/10 00:30:31;;;;;;;24.52;11.23;;;;;;;9.26;100.00;96227.69;1026414;28;20298;-69
2022/11/10 00:31:04;;;;;;;21.85;10.48;;;;;;;9.24;100.00;96227.13;1026182;28;20420;-71
2022/11/10 00:31:38;;;;;;;24.38;12.18;;;;;;;9.18;100.00;96224.41;1034444;28;20446;-70
2022/11/10 00:32:09;;;;;;;24.33;11.13;;;;;;;9.24;100.00;96230.53;1026459;28;20274;-71
2022/11/10 00:32:39;;;;;;;20.02;10.52;;;;;;;9.25;100.00;96231.31;1023159;28;20286;-70
2022/11/10 00:33:10;;;;;;;26.58;10.88;;;;;;;9.24;100.00;96234.97;1027360;28;20023;-68
2022/11/10 00:33:41;;;;;;;22.00;10.63;;;;;;;9.26;100.00;96235.53;1034547;28;20025;-70
2022/11/10 00:34:14;;;;;;;18.42;9.93;;;;;;;9.28;100.00;96233.44;1042668;28;20021;-68
2022/11/10 00:34:44;;;;;;;19.35;9.93;;;;;;;9.28;100.00;96233.44;1034257;28;20268;-69
2022/11/10 00:35:15;;;;;;;24.38;10.73;;;;;;;9.27;100.00;96232.66;1034366;28;20331;-69
2022/11/10 00:35:45;;;;;;;19.02;10.00;;;;;;;9.26;100.00;96230.28;1034380;28;20069;-70
2022/11/10 00:36:15;;;;;;;24.35;11.20;;;;;;;9.23;100.00;96234.19;1034732;28;20063;-70
2022/11/10 00:36:46;;;;;;;21.40;10.18;;;;;;;9.25;100.00;96236.53;1038491;28;20022;-69
2022/11/10 00:37:16;;;;;;;23.40;10.52;;;;;;;9.26;100.00;96232.91;1042550;28;20025;-70
2022/11/10 00:37:51;;;;;;;20.73;10.23;;;;;;;9.25;100.00;96234.72;1042506;28;20024;-70
2022/11/10 00:38:21;;;;;;;24.02;11.10;;;;;;;9.25;100.00;96234.72;1042568;28;20013;-69
2022/11/10 00:38:52;;;;;;;25.13;11.27;;;;;;;9.24;100.00;96237.59;1042640;28;20244;-71
2022/11/10 00:39:22;;;;;;;21.60;10.57;;;;;;;9.24;100.00;96242.81;1042441;28;20032;-71
2022/11/10 00:39:53;;;;;;;27.67;12.07;;;;;;;9.24;100.00;96234.97;1042585;28;20596;-69
2022/11/10 00:40:23;;;;;;;25.98;11.80;;;;;;;9.24;100.00;96241.00;1038507;28;20021;-66
2022/11/10 00:40:54;;;;;;;23.70;11.60;;;;;;;9.26;100.00;96233.69;1038512;28;20014;-69
2022/11/10 00:41:27;;;;;;;23.17;11.23;;;;;;;9.24;100.00;96238.38;1038288;28;20558;-68
2022/11/10 00:41:57;;;;;;;28.35;12.63;;;;;;;9.24;100.00;96240.22;1034986;28;20042;-70
2022/11/10 00:42:28;;;;;;;23.40;10.60;;;;;;;9.28;100.00;96236.06;1037887;28;20339;-70
2022/11/10 00:42:58;;;;;;;28.13;12.38;;;;;;;9.29;100.00;96237.63;1038641;28;20017;-68
2022/11/10 00:43:29;;;;;;;26.25;11.90;;;;;;;9.29;100.00;96242.88;1038226;28;20029;-67
2022/11/10 00:43:59;;;;;;;23.27;11.32;;;;;;;9.27;100.00;96239.72;1038539;28;20067;-70
2022/11/10 00:44:30;;;;;;;24.35;11.85;;;;;;;9.28;100.00;96236.84;1018444;29;20035;-71
2022/11/10 00:45:00;;;;;;;19.90;10.73;;;;;;;9.31;100.00;96243.44;1016458;29;20050;-70
2022/11/10 00:45:31;;;;;;;21.20;10.93;;;;;;;9.31;100.00;96236.38;1027961;28;20101;-69
2022/11/10 00:46:01;;;;;;;26.05;11.70;;;;;;;9.32;100.00;96243.22;1030480;28;20041;-69
2022/11/10 00:46:32;;;;;;;25.50;11.90;;;;;;;9.24;100.00;96232.34;1029290;28;20030;-68
2022/11/10 00:47:02;;;;;;;29.58;12.18;;;;;;;9.30;100.00;96244.47;1025551;28;20640;-69
2022/11/10 00:47:33;;;;;;;26.70;12.07;;;;;;;9.30;100.00;96239.25;1030329;28;20041;-70
2022/11/10 00:48:03;;;;;;;25.75;11.60;;;;;;;9.30;100.00;96241.88;1030455;28;20049;-70
2022/11/10 00:48:34;;;;;;;34.65;13.38;;;;;;;9.31;100.00;96246.06;1034525;28;20117;-70
2022/11/10 00:49:05;;;;;;;30.23;12.20;;;;;;;9.28;100.00;96241.31;1038668;28;20091;-70
2022/11/10 00:49:35;;;;;;;28.13;11.98;;;;;;;9.27;100.00;96244.97;1038473;28;20518;-70
2022/11/10 00:50:06;;;;;;;28.80;12.95;;;;;;;9.19;100.00;96233.09;1034334;28;20048;-71
2022/11/10 00:50:37;;;;;;;29.73;12.05;;;;;;;9.27;100.00;96245.75;1030435;28;20034;-69
2022/11/10 00:51:36;;;;;;;30.90;13.73;;;;;;;9.27;100.00;96251.00;1023064;28;20287;-69
2022/11/10 00:52:06;;;;;;;27.38;12.65;;;;;;;9.27;100.00;96250.19;1025299;28;20317;-69
2022/11/10 00:52:37;;;;;;;25.65;11.98;;;;;;;9.27;100.00;96251.00;1025068;28;20352;-70
2022/11/10 00:53:07;;;;;;;25.48;12.30;;;;;;;9.27;100.00;96242.34;1037585;28;20041;-71
2022/11/10 00:53:38;;;;;;;28.63;12.25;;;;;;;9.27;100.00;96251.00;1031287;28;20274;-71
2022/11/10 00:54:08;;;;;;;25.73;12.40;;;;;;;9.29;100.00;96248.13;1030094;28;20038;-70
2022/11/10 00:54:39;;;;;;;25.27;11.85;;;;;;;9.28;100.00;96242.09;1030320;28;20591;-71
2022/11/10 00:55:09;;;;;;;29.05;12.85;;;;;;;9.29;100.00;96248.94;1018677;29;20609;-69
2022/11/10 00:55:40;;;;;;;28.13;12.38;;;;;;;9.28;100.00;96246.53;1018236;29;20623;-70
2022/11/10 00:56:10;;;;;;;26.23;12.55;;;;;;;9.28;100.00;96249.94;1031700;28;20385;-71
2022/11/10 00:56:40;;;;;;;29.42;11.82;;;;;;;9.28;100.00;96252.56;1026132;28;20031;-69
2022/11/10 00:57:11;;;;;;;27.98;12.13;;;;;;;9.30;100.00;96249.72;1030400;28;20030;-69
2022/11/10 00:57:41;;;;;;;30.60;13.25;;;;;;;9.28;100.00;96251.78;1022182;28;20069;-69
2022/11/10 00:58:12;;;;;;;30.75;13.50;;;;;;;9.28;100.00;96249.94;1030336;28;20247;-70
2022/11/10 00:58:42;;;;;;;37.05;13.68;;;;;;;9.27;100.00;96250.19;1030207;28;20037;-67
2022/11/10 00:59:13;;;;;;;29.08;12.68;;;;;;;9.29;100.00;96251.56;1034416;28;20088;-71
2022/11/10 00:59:43;;;;;;;44.25;13.35;;;;;;;9.29;100.00;96251.56;1038326;28;20364;-70
2022/11/10 01:00:14;;;;;;;37.25;13.27;;;;;;;9.30;100.00;96252.34;1030092;28;20038;-70
2022/11/10 01:00:44;;;;;;;32.78;13.05;;;;;;;9.27;100.00;96245.75;1030197;28;20444;-69
2022/11/10 01:01:15;;;;;;;34.35;12.57;;;;;;;9.31;100.00;96251.28;1030376;28;20072;-71
2022/11/10 01:01:46;;;;;;;45.72;15.45;;;;;;;9.29;100.00;96248.94;1025885;28;20712;-69
2022/11/10 01:02:16;;;;;;;33.58;12.32;;;;;;;9.31;100.00;96259.16;1025821;28;20322;-71
2022/11/10 01:02:46;;;;;;;21.75;11.27;;;;;;;9.33;100.00;96251.88;1030138;28;20503;-71
2022/11/10 01:03:17;;;;;;;37.45;13.18;;;;;;;9.34;100.00;96253.44;1034496;28;20403;-70
2022/11/10 01:03:47;;;;;;;31.38;13.90;;;;;;;9.31;100.00;96254.69;1042477;28;20419;-71
2022/11/10 01:04:18;;;;;;;30.13;13.38;;;;;;;9.33;100.00;96260.50;1042476;28;20025;-67
2022/11/10 01:04:48;;;;;;;37.47;13.02;;;;;;;9.30;100.00;96258.38;1042322;28;20049;-71
2022/11/10 01:05:19;;;;;;;37.30;13.10;;;;;;;9.30;100.00;96255.75;1038434;28;20029;-70
2022/11/10 01:05:49;;;;;;;32.65;13.43;;;;;;;9.29;100.00;96259.41;1038398;28;20044;-70
2022/11/10 01:06:20;;;;;;;34.55;13.52;;;;;;;9.23;100.00;96243.88;1038209;28;20037;-67
2022/11/10 01:06:51;;;;;;;39.92;14.50;;;;;;;9.27;100.00;96261.47;1038427;28;20128;-71
2022/11/10 01:07:21;;;;;;;35.20;13.85;;;;;;;9.28;100.00;96257.81;1034737;28;20085;-70
2022/11/10 01:07:52;;;;;;;41.88;15.30;;;;;;;9.26;100.00;96265.13;1034346;28;20293;-69
2022/11/10 01:08:22;;;;;;;39.85;14.13;;;;;;;9.27;100.00;96268.53;1034226;28;20038;-69
2022/11/10 01:08:53;;;;;;;33.53;13.98;;;;;;;9.28;100.00;96262.25;1034438;28;20034;-71
2022/11/10 01:09:23;;;;;;;34.20;13.77;;;;;;;9.26;100.00;96256.47;1038501;28;20029;-70
2022/11/10 01:09:54;;;;;;;32.25;13.55;;;;;;;9.30;100.00;96270.66;1042528;28;20024;-69
2022/11/10 01:10:25;;;;;;;38.30;13.35;;;;;;;9.25;100.00;96252.25;1042208;28;20568;-69
2022/11/10 01:11:03;;;;;;;41.47;15.10;;;;;;;9.28;100.00;96259.63;1036826;28;20029;-70
2022/11/10 01:11:33;;;;;;;39.20;14.40;;;;;;;9.29;100.00;96256.78;1026383;28;20313;-69
2022/11/10 01:12:04;;;;;;;42.20;14.98;;;;;;;9.31;100.00;96264.38;1028481;28;20612;-71
2022/11/10 01:12:34;;;;;;;46.45;14.95;;;;;;;9.32;100.00;96265.97;1028585;28;20086;-69
2022/11/10 01:13:04;;;;;;;37.35;13.80;;;;;;;9.30;100.00;96258.38;1034068;28;20034;-67
2022/11/10 01:13:35;;;;;;;31.95;12.48;;;;;;;9.21;100.00;96252.72;1040562;28;20021;-69
2022/11/10 01:14:06;;;;;;;30.38;13.15;;;;;;;9.25;100.00;96247.03;1037848;28;20496;-69
2022/11/10 01:14:36;;;;;;;39.47;14.73;;;;;;;9.28;100.00;96268.28;1036501;28;20030;-70
2022/11/10 01:15:07;;;;;;;32.63;13.63;;;;;;;9.20;100.00;96255.59;1038123;28;20029;-69
2022/11/10 01:15:39;;;;;;;37.88;13.93;;;;;;;9.22;100.00;96250.91;1034082;28;20072;-69
2022/11/10 01:16:14;;;;;;;31.83;13.07;;;;;;;9.26;100.00;96264.34;1030153;28;20292;-70
2022/11/10 01:16:44;;;;;;;36.80;14.20;;;;;;;9.25;100.00;96260.91;1033976;28;20272;-71
2022/11/10 01:17:15;;;;;;;31.00;13.18;;;;;;;9.25;100.00;96260.09;1034261;28;20273;-70
2022/11/10 01:17:46;;;;;;;33.83;14.15;;;;;;;9.19;100.00;96248.78;1033374;28;20036;-70
2022/11/10 01:18:16;;;;;;;41.05;14.30;;;;;;;9.24;100.00;96261.16;1026927;28;20037;-69
2022/11/10 01:18:50;;;;;;;35.28;13.27;;;;;;;9.19;100.00;96248.78;1030183;28;20034;-70
2022/11/10 01:19:21;;;;;;;29.80;12.63;;;;;;;9.27;100.00;96265.91;1026268;28;20447;-71
2022/11/10 01:19:51;;;;;;;30.98;13.43;;;;;;;9.27;100.00;96271.16;1023130;28;20793;-69
2022/11/10 01:20:22;;;;;;;28.50;11.88;;;;;;;9.27;100.00;96265.91;1026277;28;20468;-70
2022/11/10 01:20:53;;;;;;;29.60;12.05;;;;;;;9.26;100.00;96269.56;1026332;28;20424;-73
2022/11/10 01:21:24;;;;;;;34.47;12.88;;;;;;;9.28;100.00;96272.72;1030404;28;20532;-71
2022/11/10 01:21:54;;;;;;;27.90;12.60;;;;;;;9.30;100.00;96268.06;1026570;28;20033;-71
2022/11/10 01:22:24;;;;;;;33.08;13.80;;;;;;;9.30;100.00;96270.66;1029188;28;20037;-71
2022/11/10 01:22:55;;;;;;;34.60;14.27;;;;;;;9.29;100.00;96269.88;1029454;28;20026;-70
2022/11/10 01:23:25;;;;;;;32.60;13.77;;;;;;;9.28;100.00;96267.50;1026284;28;20042;-70
2022/11/10 01:23:56;;;;;;;33.55;13.52;;;;;;;9.30;100.00;96275.91;1034424;28;20035;-71
2022/11/10 01:24:26;;;;;;;27.88;11.98;;;;;;;9.32;100.00;96279.88;1026688;28;20521;-71
2022/11/10 01:24:57;;;;;;;31.90;13.55;;;;;;;9.31;100.00;96277.47;1028779;28;20031;-71
2022/11/10 01:25:27;;;;;;;33.58;12.98;;;;;;;9.30;100.00;96270.66;1038473;28;20044;-69
2022/11/10 01:25:59;;;;;;;31.30;12.25;;;;;;;9.22;100.00;96266.63;1034476;28;20034;-69
2022/11/10 01:26:29;;;;;;;31.90;12.70;;;;;;;9.21;100.00;96257.97;1030317;28;20023;-70
2022/11/10 01:26:59;;;;;;;25.65;10.35;;;;;;;9.28;100.00;96272.72;1026266;28;20282;-70
2022/11/10 01:27:30;;;;;;;26.75;10.68;;;;;;;9.26;100.00;96264.34;1015086;29;20096;-70
2022/11/10 01:28:00;;;;;;;21.42;9.88;;;;;;;9.12;100.00;96254.19;1020956;29;20027;-70
2022/11/10 01:28:31;;;;;;;15.73;8.77;;;;;;;9.22;100.00;96261.38;1022607;28;20034;-71
2022/11/10 01:29:03;;;;;;;20.50;8.70;;;;;;;9.25;100.00;96275.81;1026099;28;20042;-71
2022/11/10 01:29:33;;;;;;;16.00;7.50;;;;;;;9.25;100.00;96283.69;1026556;28;20423;-66
2022/11/10 01:30:04;;;;;;;15.43;7.38;;;;;;;9.25;100.00;96268.75;1026310;28;20254;-69
2022/11/10 01:30:34;;;;;;;14.88;6.47;;;;;;;9.23;100.00;96270.84;1027135;28;20082;-71
2022/11/10 01:31:07;;;;;;;14.55;6.90;;;;;;;9.22;100.00;96269.22;1030506;28;20049;-70
2022/11/10 01:31:37;;;;;;;16.33;6.68;;;;;;;9.17;100.00;96267.34;1026614;28;20023;-70
2022/11/10 01:32:08;;;;;;;13.15;6.80;;;;;;;9.20;100.00;96268.69;1026615;28;20776;-71
2022/11/10 01:32:41;;;;;;;13.55;6.22;;;;;;;9.21;100.00;96273.69;1022043;28;20441;-71
2022/11/10 01:33:11;;;;;;;11.68;5.90;;;;;;;9.18;100.00;96274.16;1027780;28;20030;-68
2022/11/10 01:33:41;;;;;;;11.85;5.68;;;;;;;9.20;100.00;96277.34;1030604;28;20858;-70
2022/11/10 01:34:12;;;;;;;14.48;6.25;;;;;;;9.19;100.00;96275.75;1027226;28;20555;-71
2022/11/10 01:34:42;;;;;;;8.80;4.63;;;;;;;9.21;100.00;96283.38;1034126;28;20038;-70
2022/11/10 01:35:13;;;;;;;11.38;5.05;;;;;;;9.20;100.00;96282.56;1030575;28;20042;-70
2022/11/10 01:35:44;;;;;;;8.13;4.32;;;;;;;9.11;100.00;96268.28;1030154;28;20023;-67
2022/11/10 01:36:15;;;;;;;6.65;4.00;;;;;;;9.17;100.00;96283.06;1030440;28;20604;-69
2022/11/10 01:36:45;;;;;;;9.07;3.72;;;;;;;9.15;100.00;96285.13;1030196;28;20288;-71
2022/11/10 01:37:16;;;;;;;6.72;4.10;;;;;;;9.17;100.00;96288.28;1030666;28;20045;-70
2022/11/10 01:37:46;;;;;;;11.57;4.40;;;;;;;9.16;100.00;96286.72;1030206;28;20061;-70
2022/11/10 01:38:17;;;;;;;8.32;4.22;;;;;;;9.16;100.00;96288.53;1034058;28;20038;-71
2022/11/10 01:38:47;;;;;;;8.25;3.63;;;;;;;9.16;100.00;96289.34;1038241;28;20048;-69
2022/11/10 01:39:18;;;;;;;6.10;3.80;;;;;;;9.08;100.00;96281.88;1030421;28;20034;-68
2022/11/10 01:39:48;;;;;;;6.40;3.58;;;;;;;9.16;100.00;96296.41;1026027;28;20025;-70
2022/11/10 01:40:19;;;;;;;7.35;3.67;;;;;;;9.16;100.00;96302.41;1026407;28;20037;-70
2022/11/10 01:40:49;;;;;;;5.75;3.58;;;;;;;9.16;100.00;96291.16;1030249;28;20019;-70
2022/11/10 01:41:19;;;;;;;5.78;3.08;;;;;;;9.17;100.00;96288.28;1030504;28;20043;-70
2022/11/10 01:41:50;;;;;;;5.28;3.10;;;;;;;9.17;100.00;96298.75;1038160;28;20029;-73
2022/11/10 01:42:36;;;;;;;6.43;3.35;;;;;;;9.16;100.00;96297.19;1033775;28;20395;-71
2022/11/10 01:43:08;;;;;;;8.50;3.08;;;;;;;9.14;100.00;96299.25;1034210;28;20100;-69
2022/11/10 01:43:38;;;;;;;7.57;2.83;;;;;;;9.15;100.00;96300.84;1027735;28;20288;-67
2022/11/10 01:44:13;;;;;;;6.80;3.10;;;;;;;9.15;100.00;96306.09;1028439;28;20372;-71
2022/11/10 01:45:22;;;;;;;5.07;3.22;;;;;;;9.15;100.00;96308.69;1023494;28;20023;-71
2022/11/10 01:46:05;;;;;;;6.45;2.85;;;;;;;9.08;100.00;96300.19;1029477;28;20286;-70
2022/11/10 01:46:35;;;;;;;6.30;2.45;;;;;;;9.06;100.00;96307.50;1030637;28;20714;-70
2022/11/10 01:47:06;;;;;;;5.32;2.45;;;;;;;9.01;100.00;96302.19;1033650;28;20268;-74
2022/11/10 01:47:36;;;;;;;5.53;2.13;;;;;;;9.06;100.00;96304.88;1026446;28;20042;-70
2022/11/10 01:48:07;;;;;;;3.28;2.03;;;;;;;9.00;100.00;96302.44;1026268;28;20370;-71
2022/11/10 01:48:47;;;;;;;3.65;2.35;;;;;;;9.01;100.00;96309.25;1026334;28;20294;-68
2022/11/10 01:49:22;;;;;;;4.05;2.40;;;;;;;8.98;100.00;96310.50;1029188;28;20031;-70
2022/11/10 01:49:53;;;;;;;6.75;2.67;;;;;;;9.00;100.00;96305.03;1032090;28;20046;-70
2022/11/10 01:50:25;;;;;;;5.75;2.90;;;;;;;8.95;100.00;96305.75;1024554;28;20266;-70
2022/11/10 01:50:56;;;;;;;5.18;2.80;;;;;;;8.92;100.00;96295.75;1026277;28;20113;-71
2022/11/10 01:51:29;;;;;;;7.53;3.05;;;;;;;9.01;100.00;96309.25;1030372;28;20977;-70
2022/11/10 01:52:05;;;;;;;6.85;3.33;;;;;;;8.96;100.00;96302.13;1030963;28;20296;-69
2022/11/10 01:52:36;;;;;;;6.65;3.17;;;;;;;8.99;100.00;96301.63;1029602;28;20806;-71
2022/11/10 01:53:07;;;;;;;5.57;2.70;;;;;;;9.00;100.00;96303.22;1030081;28;20285;-71
2022/11/10 01:53:39;;;;;;;3.05;2.00;;;;;;;9.00;100.00;96311.06;1029653;28;20835;-72
2022/11/10 01:54:12;;;;;;;4.22;2.13;;;;;;;8.90;100.00;96296.00;1034550;28;20391;-72
2022/11/10 01:54:45;;;;;;;2.00;1.23;;;;;;;8.93;100.00;96307.81;1029983;28;20348;-71
2022/11/10 01:55:15;;;;;;;2.80;1.20;;;;;;;8.84;100.00;96304.78;1030193;28;20770;-71
2022/11/10 01:55:45;;;;;;;1.48;1.00;;;;;;;8.88;100.00;96312.97;1030011;28;20363;-70
2022/11/10 01:56:16;;;;;;;1.55;1.05;;;;;;;8.86;100.00;96317.66;1030285;28;20650;-69
2022/11/10 01:56:49;;;;;;;5.63;1.10;;;;;;;8.83;100.00;96313.69;1029934;28;20056;-70
2022/11/10 01:57:19;;;;;;;1.00;0.90;;;;;;;8.80;100.00;96318.59;1030683;28;20034;-70
2022/11/10 01:57:50;;;;;;;2.60;1.10;;;;;;;8.77;100.00;96305.97;1034227;28;20272;-68
2022/11/10 01:58:24;;;;;;;3.28;0.80;;;;;;;8.77;100.00;96319.84;1030047;28;20026;-71
2022/11/10 01:58:56;;;;;;;1.27;0.80;;;;;;;8.70;100.00;96303.50;1030049;28;20093;-71
2022/11/10 01:59:29;;;;;;;0.90;0.77;;;;;;;8.74;100.00;96309.84;1034224;28;20273;-71
2022/11/10 01:59:59;;;;;;;2.72;1.10;;;;;;;8.71;100.00;96318.19;1026169;28;20278;-71
2022/11/10 02:00:30;;;;;;;1.55;0.93;;;;;;;8.70;100.00;96306.91;1023766;28;20736;-69
2022/11/10 02:01:00;;;;;;;1.67;0.90;;;;;;;8.68;100.00;96316.81;1027035;28;20035;-73
2022/11/10 02:01:31;;;;;;;4.72;0.82;;;;;;;8.68;100.00;96314.19;1034554;28;20041;-70
2022/11/10 02:02:09;;;;;;;0.88;0.80;;;;;;;8.66;100.00;96313.66;1042356;28;20055;-71
2022/11/10 02:02:45;;;;;;;2.80;0.98;;;;;;;8.65;100.00;96317.31;1033507;28;20065;-66
2022/11/10 02:03:29;;;;;;;1.70;1.00;;;;;;;8.60;100.00;96308.56;1034435;28;20280;-70
2022/11/10 02:04:01;;;;;;;1.35;0.88;;;;;;;8.64;100.00;96314.91;1025042;28;20300;-70
2022/11/10 02:04:31;;;;;;;1.75;0.90;;;;;;;8.62;100.00;96312.56;1031201;28;20301;-70
2022/11/10 02:05:02;;;;;;;2.15;0.90;;;;;;;8.63;100.00;96313.34;1034820;28;20291;-72
2022/11/10 02:05:33;;;;;;;1.17;0.90;;;;;;;8.59;100.00;96310.41;1029670;28;20061;-71
2022/11/10 02:06:03;;;;;;;2.90;1.27;;;;;;;8.60;100.00;96309.38;1031039;28;20032;-71
2022/11/10 02:06:38;;;;;;;1.73;1.20;;;;;;;8.58;100.00;96303.56;1035265;28;20496;-70
2022/11/10 02:07:09;;;;;;;2.55;1.20;;;;;;;8.61;100.00;96315.38;1033150;28;20028;-70
2022/11/10 02:07:39;;;;;;;2.90;1.38;;;;;;;8.59;100.00;96313.03;1031128;28;20273;-71
2022/11/10 02:08:12;;;;;;;2.75;1.45;;;;;;;8.56;100.00;96308.25;1027072;28;20026;-71
2022/11/10 02:08:43;;;;;;;3.60;1.10;;;;;;;8.62;100.00;96312.56;1030820;28;20451;-69
2022/11/10 02:09:13;;;;;;;4.95;1.70;;;;;;;8.56;100.00;96307.47;1028812;28;20273;-70
2022/11/10 02:09:44;;;;;;;2.00;1.40;;;;;;;8.55;100.00;96304.06;1026846;28;20097;-70
2022/11/10 02:10:15;;;;;;;2.88;1.30;;;;;;;8.53;100.00;96298.25;1023420;28;20092;-70
2022/11/10 02:10:45;;;;;;;2.95;1.40;;;;;;;8.59;100.00;96307.78;1027590;28;20026;-71
2022/11/10 02:11:16;;;;;;;1.83;1.02;;;;;;;8.61;100.00;96310.94;1027447;28;20929;-69
2022/11/10 02:11:46;;;;;;;4.82;1.80;;;;;;;8.57;100.00;96315.06;1038694;28;20025;-72
2022/11/10 02:12:35;;;;;;;3.95;1.10;;;;;;;8.62;100.00;96317.78;1038658;28;20052;-71
2022/11/10 02:13:05;;;;;;;1.25;1.15;;;;;;;8.60;100.00;96313.81;1034803;28;20103;-74
2022/11/10 02:13:36;;;;;;;2.55;1.08;;;;;;;8.57;100.00;96320.28;1035235;28;20277;-71
2022/11/10 02:14:07;;;;;;;1.50;0.85;;;;;;;8.39;100.00;96286.50;1034866;28;20033;-70
2022/11/10 02:14:37;;;;;;;3.30;0.82;;;;;;;8.57;100.00;96315.06;1027206;28;20058;-71
2022/11/10 02:15:09;;;;;;;1.42;0.88;;;;;;;8.57;100.00;96320.28;1030684;28;20022;-70
2022/11/10 02:15:40;;;;;;;2.47;1.30;;;;;;;8.57;100.00;96316.88;1026977;28;20639;-69
2022/11/10 02:16:10;;;;;;;2.78;1.20;;;;;;;8.58;100.00;96315.84;1027279;28;20276;-72
2022/11/10 02:16:41;;;;;;;3.85;1.40;;;;;;;8.57;100.00;96325.53;1026950;28;20085;-70
2022/11/10 02:17:11;;;;;;;1.30;1.20;;;;;;;8.56;100.00;96313.50;1025668;28;20030;-71
2022/11/10 02:17:42;;;;;;;2.58;1.38;;;;;;;8.56;100.00;96321.34;1025932;28;20031;-72
2022/11/10 02:18:12;;;;;;;2.55;1.38;;;;;;;8.56;100.00;96321.34;1027529;28;20031;-71
2022/11/10 02:18:43;;;;;;;1.42;1.23;;;;;;;8.57;100.00;96319.50;1035090;28;20038;-71
2022/11/10 02:19:24;;;;;;;1.83;1.20;;;;;;;8.53;100.00;96313.94;1039093;28;20025;-70
2022/11/10 02:20:04;;;;;;;4.13;1.20;;;;;;;8.58;100.00;96331.53;1032196;28;21008;-71
2022/11/10 02:20:35;;;;;;;5.20;1.63;;;;;;;8.57;100.00;96324.75;1035174;28;20788;-69
2022/11/10 02:21:06;;;;;;;2.20;1.23;;;;;;;8.52;100.00;96322.84;1035006;28;20272;-70
2022/11/10 02:21:37;;;;;;;4.03;1.58;;;;;;;8.56;100.00;96329.19;1036810;28;20576;-69
2022/11/10 02:22:07;;;;;;;6.15;2.83;;;;;;;8.57;100.00;96324.75;1039026;28;20308;-68
2022/11/10 02:22:38;;;;;;;3.58;1.50;;;;;;;8.56;100.00;96329.19;1038608;28;20028;-71
2022/11/10 02:23:34;;;;;;;2.55;1.58;;;;;;;8.58;100.00;96329.72;1039251;28;20533;-69
2022/11/10 02:24:04;;;;;;;2.60;1.45;;;;;;;8.57;100.00;96330.75;1038232;28;20034;-72
2022/11/10 02:24:35;;;;;;;2.22;1.33;;;;;;;8.58;100.00;96327.09;1043246;28;20678;-70
2022/11/10 02:25:06;;;;;;;3.75;1.88;;;;;;;8.52;100.00;96317.59;1043215;28;20024;-67
2022/11/10 02:25:36;;;;;;;2.78;1.70;;;;;;;8.53;100.00;96318.41;1043101;28;20037;-71
2022/11/10 02:26:06;;;;;;;5.70;2.38;;;;;;;8.60;100.00;96329.50;1043096;28;20021;-68
2022/11/10 02:26:41;;;;;;;5.40;2.25;;;;;;;8.59;100.00;96331.31;1038210;28;20065;-69
2022/11/10 02:27:11;;;;;;;4.85;1.70;;;;;;;8.59;100.00;96333.94;1032684;28;20543;-68
2022/11/10 02:27:42;;;;;;;2.75;1.67;;;;;;;8.61;100.00;96331.88;1032039;28;20617;-70
2022/11/10 02:28:12;;;;;;;7.80;2.30;;;;;;;8.55;100.00;96319.75;1031170;28;20115;-70
2022/11/10 02:28:42;;;;;;;3.17;2.00;;;;;;;8.62;100.00;96336.09;1026681;28;20014;-69
2022/11/10 02:29:14;;;;;;;3.17;2.00;;;;;;;8.62;100.00;96332.69;1026650;28;20022;-71
2022/11/10 02:29:44;;;;;;;3.78;2.33;;;;;;;8.62;100.00;96338.72;1022572;28;20032;-69